createdAt,value
2022-10-18T00:02:22.192Z,101832.94
2022-10-18T00:04:48.806Z,101836.06
2022-10-18T00:07:15.642Z,101830.66
2022-10-18T00:09:42.278Z,101832.13
2022-10-18T00:12:08.775Z,101828.75
2022-10-18T00:14:35.146Z,101842.47
2022-10-18T00:17:01.843Z,101832.72
2022-10-18T00:19:29.413Z,101837.75
2022-10-18T00:21:56.010Z,101843.31
2022-10-18T00:24:22.315Z,101840.41
2022-10-18T00:26:48.664Z,101839.59
2022-10-18T00:29:15.456Z,101845.84
2022-10-18T00:31:41.843Z,101847.09
2022-10-18T00:34:08.391Z,101850.41
2022-10-18T00:36:34.840Z,101838.56
2022-10-18T00:39:01.218Z,101845.00
2022-10-18T00:41:27.574Z,101848.38
2022-10-18T00:43:54.022Z,101842.34
2022-10-18T00:46:20.422Z,101849.34
2022-10-18T00:48:46.906Z,101848.75
2022-10-18T00:51:13.238Z,101847.47
2022-10-18T00:53:39.615Z,101846.69
2022-10-18T00:56:06.124Z,101853.50
2022-10-18T00:58:32.596Z,101841.69
2022-10-18T01:00:58.974Z,101847.31
2022-10-18T01:03:30.052Z,101854.78
2022-10-18T01:05:56.617Z,101846.47
2022-10-18T01:08:22.959Z,101850.00
2022-10-18T01:10:49.344Z,101840.03
2022-10-18T01:13:15.761Z,101848.38
2022-10-18T01:15:44.712Z,101845.88
2022-10-18T01:18:11.367Z,101843.78
2022-10-18T01:20:37.707Z,101843.34
2022-10-18T01:23:04.124Z,101845.22
2022-10-18T01:25:30.564Z,101850.41
2022-10-18T01:27:56.948Z,101848.13
2022-10-18T01:30:23.277Z,101850.00
2022-10-18T01:32:49.719Z,101860.81
2022-10-18T01:35:16.048Z,101857.66
2022-10-18T01:37:42.535Z,101863.28
2022-10-18T01:40:08.985Z,101855.00
2022-10-18T01:42:36.528Z,101858.53
2022-10-18T01:45:03.068Z,101851.88
2022-10-18T01:47:29.916Z,101848.97
2022-10-18T01:49:56.884Z,101857.66
2022-10-18T01:52:23.234Z,101850.63
2022-10-18T01:54:49.671Z,101847.53
2022-10-18T01:57:16.123Z,101862.06
2022-10-18T01:59:42.588Z,101855.22
2022-10-18T02:02:09.203Z,101866.81
2022-10-18T02:04:35.568Z,101851.66
2022-10-18T02:07:02.176Z,101854.59
2022-10-18T02:09:28.525Z,101859.56
2022-10-18T02:11:55.027Z,101860.19
2022-10-18T02:14:21.601Z,101866.00
2022-10-18T02:16:48.022Z,101864.97
2022-10-18T02:19:14.423Z,101868.94
2022-10-18T02:21:40.791Z,101867.88
2022-10-18T02:24:08.751Z,101870.97
2022-10-18T02:26:35.105Z,101868.06
2022-10-18T02:29:01.541Z,101872.03
2022-10-18T02:31:28.027Z,101879.47
2022-10-18T02:33:54.474Z,101871.19
2022-10-18T02:36:20.905Z,101876.81
2022-10-18T02:38:47.267Z,101874.91
2022-10-18T02:41:13.812Z,101873.66
2022-10-18T02:43:40.295Z,101872.66
2022-10-18T02:46:06.983Z,101869.16
2022-10-18T02:48:33.369Z,101869.75
2022-10-18T02:51:00.315Z,101869.16
2022-10-18T02:53:26.891Z,101875.56
2022-10-18T02:55:53.266Z,101868.50
2022-10-18T02:58:19.659Z,101869.16
2022-10-18T03:00:46.134Z,101873.47
2022-10-18T03:03:12.619Z,101879.50
2022-10-18T03:05:38.910Z,101880.97
2022-10-18T03:08:05.459Z,101887.78
2022-10-18T03:10:31.913Z,101881.59
2022-10-18T03:12:58.624Z,101887.84
2022-10-18T03:15:24.960Z,101884.31
2022-10-18T03:17:51.411Z,101887.00
2022-10-18T03:20:17.735Z,101882.00
2022-10-18T03:22:44.163Z,101887.84
2022-10-18T03:25:10.527Z,101889.06
2022-10-18T03:27:37.023Z,101895.69
2022-10-18T03:30:03.380Z,101896.47
2022-10-18T03:32:29.989Z,101894.03
2022-10-18T03:34:56.529Z,101899.66
2022-10-18T03:37:23.986Z,101898.81
2022-10-18T03:39:50.438Z,101905.47
2022-10-18T03:42:16.882Z,101901.94
2022-10-18T03:44:43.241Z,101904.03
2022-10-18T03:47:09.603Z,101906.03
2022-10-18T03:49:35.982Z,101896.47
2022-10-18T03:52:02.366Z,101896.13
2022-10-18T03:54:28.924Z,101904.81
2022-10-18T03:56:55.404Z,101904.19
2022-10-18T03:59:22.692Z,101897.38
2022-10-18T04:01:49.248Z,101900.06
2022-10-18T04:04:15.904Z,101897.34
2022-10-18T04:06:42.320Z,101900.28
2022-10-18T04:09:10.209Z,101906.09
2022-10-18T04:11:36.914Z,101905.28
2022-10-18T04:14:03.247Z,101905.88
2022-10-18T04:16:29.742Z,101904.25
2022-10-18T04:18:56.330Z,101904.25
2022-10-18T04:21:22.705Z,101899.91
2022-10-18T04:23:49.190Z,101900.50
2022-10-18T04:26:15.606Z,101900.28
2022-10-18T04:28:42.108Z,101893.44
2022-10-18T04:31:08.536Z,101889.91
2022-10-18T04:33:34.940Z,101895.06
2022-10-18T04:36:01.550Z,101898.63
2022-10-18T04:38:28.119Z,101899.44
2022-10-18T04:40:54.569Z,101904.63
2022-10-18T04:43:21.079Z,101898.00
2022-10-18T04:45:47.541Z,101896.97
2022-10-18T04:48:14.076Z,101897.16
2022-10-18T04:50:40.507Z,101903.59
2022-10-18T04:53:07.070Z,101902.16
2022-10-18T04:55:33.428Z,101901.94
2022-10-18T04:57:59.894Z,101892.19
2022-10-18T05:00:26.293Z,101885.16
2022-10-18T05:02:52.833Z,101882.88
2022-10-18T05:05:19.551Z,101882.88
2022-10-18T05:07:46.300Z,101888.25
2022-10-18T05:10:12.775Z,101877.88
2022-10-18T05:12:39.434Z,101877.44
2022-10-18T05:15:06.491Z,101882.66
2022-10-18T05:17:32.976Z,101875.38
2022-10-18T05:19:59.345Z,101875.63
2022-10-18T05:22:25.848Z,101874.78
2022-10-18T05:24:52.488Z,101879.75
2022-10-18T05:27:18.976Z,101879.94
2022-10-18T05:29:45.960Z,101875.38
2022-10-18T05:32:12.384Z,101875.78
2022-10-18T05:34:38.829Z,101873.91
2022-10-18T05:37:05.228Z,101871.88
2022-10-18T05:39:31.790Z,101879.53
2022-10-18T05:41:58.252Z,101872.09
2022-10-18T05:44:24.673Z,101879.50
2022-10-18T05:46:51.082Z,101883.47
2022-10-18T05:49:17.495Z,101882.41
2022-10-18T05:51:43.818Z,101880.78
2022-10-18T05:54:10.116Z,101887.59
2022-10-18T05:56:36.567Z,101894.88
2022-10-18T05:59:02.995Z,101896.16
2022-10-18T06:01:29.290Z,101900.50
2022-10-18T06:03:55.604Z,101891.81
2022-10-18T06:06:21.994Z,101886.41
2022-10-18T06:08:48.368Z,101891.16
2022-10-18T06:11:14.809Z,101890.97
2022-10-18T06:13:41.180Z,101903.56
2022-10-18T06:16:07.643Z,101905.66
2022-10-18T06:18:34.107Z,101906.88
2022-10-18T06:21:01.744Z,101900.69
2022-10-18T06:23:28.142Z,101903.19
2022-10-18T06:25:54.546Z,101903.19
2022-10-18T06:28:21.010Z,101900.88
2022-10-18T06:30:48.253Z,101895.09
2022-10-18T06:33:14.612Z,101888.66
2022-10-18T06:35:41.030Z,101898.00
2022-10-18T06:38:07.478Z,101901.31
2022-10-18T06:40:34.037Z,101904.00
2022-10-18T06:45:32.373Z,101913.34
2022-10-18T06:47:58.819Z,101908.97
2022-10-18T06:50:25.736Z,101915.63
2022-10-18T06:52:52.150Z,101915.84
2022-10-18T06:55:18.429Z,101912.69
2022-10-18T06:57:44.876Z,101908.16
2022-10-18T07:00:11.274Z,101907.97
2022-10-18T07:02:37.905Z,101905.44
2022-10-18T07:05:04.251Z,101905.63
2022-10-18T07:07:31.026Z,101911.03
2022-10-18T07:09:57.828Z,101913.94
2022-10-18T07:12:24.101Z,101918.53
2022-10-18T07:14:50.586Z,101915.59
2022-10-18T07:17:17.045Z,101912.69
2022-10-18T07:19:43.447Z,101919.31
2022-10-18T07:22:09.818Z,101920.81
2022-10-18T07:24:36.285Z,101922.69
2022-10-18T07:27:02.700Z,101923.50
2022-10-18T07:29:29.079Z,101935.72
2022-10-18T07:31:55.644Z,101921.25
2022-10-18T07:34:22.147Z,101906.03
2022-10-18T07:36:48.546Z,101911.44
2022-10-18T07:39:15.048Z,101915.81
2022-10-18T07:41:41.498Z,101914.31
2022-10-18T07:44:08.111Z,101913.50
2022-10-18T07:46:34.689Z,101911.03
2022-10-18T07:49:01.512Z,101922.88
2022-10-18T07:51:28.153Z,101910.44
2022-10-18T07:53:54.554Z,101906.47
2022-10-18T07:56:21.783Z,101896.94
2022-10-18T07:58:48.165Z,101900.06
2022-10-18T08:01:14.675Z,101893.84
2022-10-18T08:03:41.156Z,101897.59
2022-10-18T08:06:07.689Z,101896.16
2022-10-18T08:08:34.305Z,101892.16
2022-10-18T08:11:00.632Z,101887.16
2022-10-18T08:13:27.589Z,101886.81
2022-10-18T08:15:54.742Z,101888.63
2022-10-18T08:18:21.179Z,101889.25
2022-10-18T08:20:47.628Z,101893.44
2022-10-18T08:23:14.061Z,101883.66
2022-10-18T08:25:41.161Z,101878.25
2022-10-18T08:28:07.752Z,101870.19
2022-10-18T08:30:34.169Z,101871.81
2022-10-18T08:33:00.573Z,101869.13
2022-10-18T08:35:27.397Z,101863.72
2022-10-18T08:37:53.888Z,101868.91
2022-10-18T08:40:20.309Z,101872.69
2022-10-18T08:42:46.696Z,101878.28
2022-10-18T08:45:30.184Z,101886.56
2022-10-18T08:47:59.910Z,101876.81
2022-10-18T08:50:26.764Z,101863.94
2022-10-18T08:52:53.151Z,101868.09
2022-10-18T08:55:19.693Z,101878.47
2022-10-18T09:00:14.462Z,101897.94
2022-10-18T09:02:40.930Z,101894.84
2022-10-18T09:05:07.788Z,101890.72
2022-10-18T09:07:34.163Z,101887.19
2022-10-18T09:10:00.550Z,101868.72
2022-10-18T09:12:27.071Z,101875.38
2022-10-18T09:14:53.762Z,101883.06
2022-10-18T09:17:20.298Z,101874.56
2022-10-18T09:19:46.756Z,101877.66
2022-10-18T09:22:13.288Z,101879.31
2022-10-18T09:24:40.875Z,101892.72
2022-10-18T09:27:07.216Z,101915.19
2022-10-18T09:29:33.610Z,101914.81
2022-10-18T09:32:00.135Z,101923.66
2022-10-18T09:34:26.805Z,101925.78
2022-10-18T09:36:53.441Z,101916.63
2022-10-18T09:39:19.787Z,101918.06
2022-10-18T09:41:46.225Z,101916.44
2022-10-18T09:44:12.644Z,101926.38
2022-10-18T09:46:39.004Z,101914.13
2022-10-18T09:49:05.322Z,101908.34
2022-10-18T09:51:31.714Z,101904.00
2022-10-18T09:53:58.111Z,101899.84
2022-10-18T09:56:24.600Z,101890.06
2022-10-18T09:58:51.037Z,101904.81
2022-10-18T10:01:17.452Z,101915.56
2022-10-18T10:03:43.845Z,101911.22
2022-10-18T10:06:10.425Z,101905.63
2022-10-18T10:08:36.956Z,101908.75
2022-10-18T10:11:03.404Z,101897.56
2022-10-18T10:13:29.883Z,101900.84
2022-10-18T10:15:56.462Z,101892.97
2022-10-18T10:18:22.825Z,101888.84
2022-10-18T10:20:49.211Z,101883.00
2022-10-18T10:23:15.849Z,101879.91
2022-10-18T10:25:42.398Z,101881.34
2022-10-18T10:28:08.865Z,101886.13
2022-10-18T10:30:35.264Z,101884.47
2022-10-18T10:33:01.583Z,101886.13
2022-10-18T10:35:35.519Z,101877.22
2022-10-18T10:38:16.154Z,101881.13
2022-10-18T10:40:42.521Z,101893.59
2022-10-18T10:43:18.415Z,101898.13
2022-10-18T10:45:52.510Z,101895.25
2022-10-18T10:48:18.906Z,101899.38
2022-10-18T10:50:45.455Z,101898.38
2022-10-18T10:53:11.798Z,101893.41
2022-10-18T10:55:38.156Z,101894.63
2022-10-18T10:58:04.736Z,101879.69
2022-10-18T11:00:31.118Z,101884.03
2022-10-18T11:03:05.929Z,101885.31
2022-10-18T11:05:37.892Z,101892.34
2022-10-18T11:08:04.409Z,101884.25
2022-10-18T11:10:31.061Z,101883.66
2022-10-18T11:12:57.511Z,101880.50
2022-10-18T11:15:23.892Z,101891.53
2022-10-18T11:17:50.626Z,101884.47
2022-10-18T11:20:17.415Z,101879.06
2022-10-18T11:22:43.767Z,101873.28
2022-10-18T11:25:10.225Z,101866.44
2022-10-18T11:27:36.842Z,101871.22
2022-10-18T11:30:03.220Z,101874.75
2022-10-18T11:32:30.170Z,101881.56
2022-10-18T11:34:56.951Z,101876.81
2022-10-18T11:37:29.179Z,101877.03
2022-10-18T11:39:57.931Z,101880.94
2022-10-18T11:42:24.417Z,101881.59
2022-10-18T11:44:51.103Z,101871.41
2022-10-18T11:47:17.526Z,101878.88
2022-10-18T11:49:45.137Z,101867.28
2022-10-18T11:52:11.604Z,101860.41
2022-10-18T11:54:37.955Z,101858.94
2022-10-18T11:57:04.446Z,101855.25
2022-10-18T11:59:30.882Z,101845.91
2022-10-18T12:01:57.306Z,101847.97
2022-10-18T12:04:23.979Z,101848.19
2022-10-18T12:06:50.589Z,101836.38
2022-10-18T12:09:16.923Z,101835.97
2022-10-18T12:11:45.470Z,101827.63
2022-10-18T12:14:13.702Z,101810.63
2022-10-18T12:16:51.039Z,101805.66
2022-10-18T12:19:20.808Z,101796.72
2022-10-18T12:21:50.012Z,101800.00
2022-10-18T12:24:16.704Z,101798.06
2022-10-18T12:26:43.282Z,101793.31
2022-10-18T12:29:10.183Z,101784.78
2022-10-18T12:34:20.614Z,101774.94
2022-10-18T12:36:47.020Z,101778.06
2022-10-18T12:39:13.361Z,101782.19
2022-10-18T12:41:39.786Z,101793.38
2022-10-18T12:44:06.112Z,101793.75
2022-10-18T12:48:59.899Z,101809.69
2022-10-18T12:51:26.247Z,101809.25
2022-10-18T12:53:52.584Z,101825.41
2022-10-18T12:56:20.793Z,101820.00
2022-10-18T12:58:49.589Z,101831.19
2022-10-18T13:01:17.041Z,101835.31
2022-10-18T13:03:43.527Z,101829.69
2022-10-18T13:06:10.021Z,101837.16
2022-10-18T13:08:36.456Z,101836.94
2022-10-18T13:11:02.905Z,101836.72
2022-10-18T13:13:39.815Z,101833.56
2022-10-18T13:16:06.710Z,101835.84
2022-10-18T13:18:33.288Z,101834.78
2022-10-18T13:20:59.710Z,101836.22
2022-10-18T13:23:26.044Z,101833.50
2022-10-18T13:25:52.575Z,101839.97
2022-10-18T13:28:18.836Z,101846.41
2022-10-18T13:30:45.305Z,101847.00
2022-10-18T13:33:11.593Z,101850.34
2022-10-18T13:35:37.958Z,101844.25
2022-10-18T13:38:04.345Z,101852.13
2022-10-18T13:40:30.663Z,101843.06
2022-10-18T13:42:56.976Z,101847.50
2022-10-18T13:45:23.367Z,101850.06
2022-10-18T13:47:49.763Z,101846.19
2022-10-18T13:50:16.257Z,101855.66
2022-10-18T13:52:42.599Z,101845.78
2022-10-18T13:55:09.192Z,101854.00
2022-10-18T13:57:35.610Z,101854.75
2022-10-18T14:00:02.088Z,101851.03
2022-10-18T14:02:50.057Z,101858.22
2022-10-18T14:05:25.131Z,101859.19
2022-10-18T14:07:52.178Z,101859.34
2022-10-18T14:10:18.636Z,101857.22
2022-10-18T14:12:45.060Z,101859.47
2022-10-18T14:15:11.569Z,101866.91
2022-10-18T14:20:05.462Z,101869.16
2022-10-18T14:22:32.029Z,101861.63
2022-10-18T14:24:58.615Z,101863.28
2022-10-18T14:27:25.688Z,101861.19
2022-10-18T14:29:52.052Z,101855.28
2022-10-18T14:32:18.395Z,101870.50
2022-10-18T14:34:44.725Z,101872.97
2022-10-18T14:37:11.048Z,101866.75
2022-10-18T14:39:37.500Z,101867.53
2022-10-18T14:42:03.839Z,101874.63
2022-10-18T14:44:30.159Z,101874.41
2022-10-18T14:46:56.556Z,101866.28
2022-10-18T14:49:22.883Z,101866.28
2022-10-18T14:51:49.207Z,101869.22
2022-10-18T14:54:15.992Z,101870.03
2022-10-18T14:56:42.393Z,101864.63
2022-10-18T14:59:08.765Z,101860.50
2022-10-18T15:01:35.166Z,101866.75
2022-10-18T15:04:02.171Z,101859.69
2022-10-18T15:06:28.571Z,101867.53
2022-10-18T15:08:54.900Z,101865.09
2022-10-18T15:11:21.418Z,101853.44
2022-10-18T15:13:48.151Z,101853.66
2022-10-18T15:16:14.452Z,101858.72
2022-10-18T15:18:40.755Z,101856.59
2022-10-18T15:21:07.205Z,101854.09
2022-10-18T15:23:33.734Z,101861.41
2022-10-18T15:26:00.042Z,101863.28
2022-10-18T15:28:26.932Z,101860.00
2022-10-18T15:30:53.424Z,101853.53
2022-10-18T15:33:19.760Z,101857.88
2022-10-18T15:35:46.130Z,101862.47
2022-10-18T15:38:12.575Z,101859.50
2022-10-18T15:40:39.059Z,101866.84
2022-10-18T15:43:05.487Z,101867.06
2022-10-18T15:45:31.824Z,101864.34
2022-10-18T15:47:58.271Z,101870.34
2022-10-18T15:50:24.648Z,101873.31
2022-10-18T15:52:51.032Z,101874.94
2022-10-18T15:55:17.459Z,101882.25
2022-10-18T15:57:43.995Z,101871.41
2022-10-18T16:00:10.445Z,101876.25
2022-10-18T16:02:36.772Z,101876.25
2022-10-18T16:05:03.436Z,101878.72
2022-10-18T16:07:29.931Z,101878.94
2022-10-18T16:09:56.368Z,101879.75
2022-10-18T16:12:22.673Z,101881.66
2022-10-18T16:14:49.002Z,101875.41
2022-10-18T16:17:15.617Z,101876.25
2022-10-18T16:19:42.031Z,101878.09
2022-10-18T16:22:08.873Z,101879.16
2022-10-18T16:24:35.338Z,101887.28
2022-10-18T16:29:45.952Z,101891.81
2022-10-18T16:32:12.416Z,101898.06
2022-10-18T16:34:38.930Z,101903.22
2022-10-18T16:37:05.366Z,101909.03
2022-10-18T16:39:31.820Z,101911.53
2022-10-18T16:41:58.156Z,101914.00
2022-10-18T16:44:24.570Z,101920.00
2022-10-18T16:46:53.872Z,101902.69
2022-10-18T16:49:21.980Z,101907.06
2022-10-18T16:54:16.709Z,101913.44
2022-10-18T16:56:43.232Z,101918.63
2022-10-18T16:59:09.730Z,101916.38
2022-10-18T17:01:37.352Z,101915.56
2022-10-18T17:04:04.010Z,101916.38
2022-10-18T17:06:30.491Z,101917.44
2022-10-18T17:08:56.918Z,101918.28
2022-10-18T17:11:23.863Z,101917.66
2022-10-18T17:13:50.254Z,101908.72
2022-10-18T17:16:17.094Z,101918.50
2022-10-18T17:18:43.502Z,101916.63
2022-10-18T17:21:09.814Z,101918.50
2022-10-18T17:23:36.320Z,101928.25
2022-10-18T17:26:21.980Z,101925.56
2022-10-18T17:28:49.248Z,101919.34
2022-10-18T17:31:16.304Z,101926.41
2022-10-18T17:33:43.165Z,101920.97
2022-10-18T17:36:09.517Z,101920.13
2022-10-18T17:38:38.051Z,101920.13
2022-10-18T17:41:04.703Z,101924.50
2022-10-18T17:43:31.156Z,101923.47
2022-10-18T17:45:57.826Z,101917.22
2022-10-18T17:48:24.272Z,101920.75
2022-10-18T17:50:51.099Z,101926.97
2022-10-18T17:53:17.526Z,101934.28
2022-10-18T17:55:43.927Z,101933.22
2022-10-18T17:58:10.279Z,101926.41
2022-10-18T18:00:36.703Z,101930.53
2022-10-18T18:03:03.057Z,101930.53
2022-10-18T18:05:29.434Z,101927.81
2022-10-18T18:07:58.694Z,101934.75
2022-10-18T18:10:27.624Z,101930.97
2022-10-18T18:12:54.679Z,101937.00
2022-10-18T18:15:21.151Z,101937.59
2022-10-18T18:17:56.819Z,101940.06
2022-10-18T18:20:23.702Z,101941.72
2022-10-18T18:22:50.139Z,101935.25
2022-10-18T18:25:16.607Z,101937.13
2022-10-18T18:27:42.991Z,101932.09
2022-10-18T18:30:10.410Z,101932.09
2022-10-18T18:32:36.933Z,101926.88
2022-10-18T18:35:03.187Z,101924.56
2022-10-18T18:37:29.568Z,101932.44
2022-10-18T18:39:55.912Z,101932.44
2022-10-18T18:42:22.239Z,101931.41
2022-10-18T18:44:48.631Z,101938.69
2022-10-18T18:47:15.217Z,101931.19
2022-10-18T18:49:41.725Z,101926.56
2022-10-18T18:52:08.284Z,101925.78
2022-10-18T18:54:34.668Z,101933.63
2022-10-18T18:57:01.092Z,101938.03
2022-10-18T18:59:27.609Z,101938.25
2022-10-18T19:01:54.241Z,101933.41
2022-10-18T19:04:20.628Z,101927.41
2022-10-18T19:06:46.929Z,101936.97
2022-10-18T19:09:13.309Z,101934.25
2022-10-18T19:14:30.178Z,101939.66
2022-10-18T19:16:56.659Z,101934.47
2022-10-18T19:19:23.129Z,101940.56
2022-10-18T19:21:49.619Z,101934.94
2022-10-18T19:24:16.043Z,101932.44
2022-10-18T19:26:42.397Z,101935.75
2022-10-18T19:29:08.944Z,101939.31
2022-10-18T19:31:35.450Z,101935.53
2022-10-18T19:34:01.867Z,101943.66
2022-10-18T19:36:29.205Z,101937.41
2022-10-18T19:38:55.638Z,101943.66
2022-10-18T19:41:22.013Z,101942.59
2022-10-18T19:49:24.452Z,101949.53
2022-10-18T19:51:50.862Z,101953.31
2022-10-18T19:54:17.324Z,101952.31
2022-10-18T19:56:43.704Z,101956.09
2022-10-18T19:59:10.065Z,101956.31
2022-10-18T20:01:36.737Z,101951.56
2022-10-18T20:04:03.356Z,101963.81
2022-10-18T20:06:29.891Z,101962.16
2022-10-18T20:08:56.267Z,101957.81
2022-10-18T20:11:22.800Z,101971.13
2022-10-18T20:13:49.291Z,101971.72
2022-10-18T20:16:15.788Z,101966.31
2022-10-18T20:21:11.878Z,101958.34
2022-10-18T20:23:38.308Z,101956.44
2022-10-18T20:26:04.657Z,101953.53
2022-10-18T20:28:31.148Z,101956.22
2022-10-18T20:30:57.799Z,101956.22
2022-10-18T20:33:24.185Z,101956.81
2022-10-18T20:35:52.364Z,101966.63
2022-10-18T20:38:19.096Z,101980.97
2022-10-18T20:40:45.484Z,101988.28
2022-10-18T20:43:11.924Z,101989.09
2022-10-18T20:45:38.424Z,101993.69
2022-10-18T20:48:04.872Z,101988.06
2022-10-18T20:50:31.260Z,101994.28
2022-10-18T20:52:57.886Z,101994.28
2022-10-18T20:55:24.534Z,101993.22
2022-10-18T20:57:51.136Z,101994.50
2022-10-18T21:03:02.123Z,101994.50
2022-10-18T21:05:28.540Z,101995.56
2022-10-18T21:07:54.907Z,102002.63
2022-10-18T21:10:22.323Z,101996.63
2022-10-18T21:12:50.750Z,101989.56
2022-10-18T21:15:17.190Z,102001.25
2022-10-18T21:17:43.793Z,101997.38
2022-10-18T21:20:11.278Z,101996.78
2022-10-18T21:22:37.823Z,102004.88
2022-10-18T21:25:04.381Z,101998.63
2022-10-18T21:27:30.970Z,101995.94
2022-10-18T21:29:57.357Z,101993.22
2022-10-18T21:32:27.400Z,101990.75
2022-10-18T21:34:55.044Z,101987.28
2022-10-18T21:37:23.041Z,101988.06
2022-10-18T21:39:51.190Z,101979.31
2022-10-18T21:42:18.175Z,101967.66
2022-10-18T21:44:44.748Z,101973.06
2022-10-18T21:47:11.203Z,101965.41
2022-10-18T21:49:37.665Z,101958.34
2022-10-18T21:52:03.995Z,101952.94
2022-10-18T21:54:30.480Z,101951.47
2022-10-18T21:56:56.862Z,101959.59
2022-10-18T21:59:23.363Z,101957.16
2022-10-18T22:01:49.930Z,101959.03
2022-10-18T22:04:16.224Z,101954.66
2022-10-18T22:06:42.669Z,101963.00
2022-10-18T22:09:09.151Z,101959.69
2022-10-18T22:11:35.595Z,101961.81
2022-10-18T22:14:01.944Z,101960.16
2022-10-18T22:16:28.637Z,101954.97
2022-10-18T22:18:55.159Z,101956.84
2022-10-18T22:21:21.560Z,101957.91
2022-10-18T22:23:48.131Z,101958.97
2022-10-18T22:26:14.588Z,101952.94
2022-10-18T22:28:41.254Z,101956.69
2022-10-18T22:31:07.662Z,101956.91
2022-10-18T22:33:34.126Z,101957.97
2022-10-18T22:36:00.608Z,101951.13
2022-10-18T22:38:27.667Z,101959.03
2022-10-18T22:40:54.253Z,101957.34
2022-10-18T22:43:20.609Z,101958.63
2022-10-18T22:45:47.202Z,101958.91
2022-10-18T22:48:13.663Z,101957.22
2022-10-18T22:50:40.048Z,101954.72
2022-10-18T22:53:06.588Z,101956.63
2022-10-18T22:55:34.203Z,101949.31
2022-10-18T22:58:00.634Z,101943.31
2022-10-18T23:00:27.328Z,101939.78
2022-10-18T23:02:53.792Z,101944.59
2022-10-18T23:05:20.176Z,101941.28
2022-10-18T23:07:47.325Z,101947.53
2022-10-18T23:10:13.782Z,101948.59
2022-10-18T23:12:40.183Z,101951.72
2022-10-18T23:15:06.525Z,101947.16
2022-10-18T23:17:33.354Z,101947.59
2022-10-18T23:19:59.944Z,101949.25
2022-10-18T23:22:26.794Z,101950.53
2022-10-18T23:24:53.297Z,101957.00
2022-10-18T23:27:19.762Z,101964.28
2022-10-18T23:29:46.139Z,101958.88
2022-10-18T23:32:12.621Z,101962.22
2022-10-18T23:34:39.062Z,101955.75
2022-10-18T23:37:05.917Z,101963.88
2022-10-18T23:39:32.393Z,101961.59
2022-10-18T23:41:58.705Z,101961.03
2022-10-18T23:44:25.012Z,101959.13
2022-10-18T23:46:51.764Z,101955.00
2022-10-18T23:49:18.084Z,101954.19
2022-10-18T23:51:44.659Z,101953.56
2022-10-18T23:54:12.015Z,101942.16
2022-10-18T23:56:38.345Z,101945.66
2022-10-18T23:59:04.806Z,101939.44
